createdAt,value
2019-05-17T00:02:23.235Z,98767.01
2019-05-17T00:04:56.370Z,98767.01
2019-05-17T00:07:28.739Z,98771.33
2019-05-17T00:10:00.411Z,98777.05
2019-05-17T00:12:32.187Z,98777.05
2019-05-17T00:15:04.421Z,98778.83
2019-05-17T00:17:37.704Z,98778.83
2019-05-17T00:20:09.726Z,98774.86
2019-05-17T00:22:41.769Z,98764.70
2019-05-17T00:25:13.396Z,98764.70
2019-05-17T00:27:47.184Z,98766.70
2019-05-17T00:30:18.204Z,98774.12
2019-05-17T00:32:50.134Z,98779.05
2019-05-17T00:35:21.810Z,98789.01
2019-05-17T00:37:54.035Z,98789.01
2019-05-17T00:40:27.015Z,98792.96
2019-05-17T00:42:59.035Z,98797.75
2019-05-17T00:45:32.022Z,98800.08
2019-05-17T00:48:03.737Z,98808.41
2019-05-17T00:50:37.815Z,98803.92
2019-05-17T00:53:08.946Z,98809.89
2019-05-17T00:55:40.309Z,98809.89
2019-05-17T00:58:12.175Z,98810.30
2019-05-17T01:00:43.886Z,98812.92
2019-05-17T01:03:16.391Z,98816.89
2019-05-17T01:05:48.029Z,98816.89
2019-05-17T01:08:19.793Z,98827.05
2019-05-17T01:10:51.525Z,98836.73
2019-05-17T01:13:23.982Z,98841.20
2019-05-17T01:15:56.684Z,98848.46
2019-05-17T01:18:28.486Z,98861.16
2019-05-17T01:21:00.452Z,98859.02
2019-05-17T01:23:32.828Z,98857.54
2019-05-17T01:26:07.275Z,98864.84
2019-05-17T01:28:37.879Z,98864.84
2019-05-17T01:31:09.337Z,98865.33
2019-05-17T01:33:41.337Z,98877.30
2019-05-17T01:36:12.761Z,98876.80
2019-05-17T01:38:46.767Z,98876.80
2019-05-17T01:41:17.700Z,98869.13
2019-05-17T01:43:49.416Z,98873.77
2019-05-17T01:46:20.771Z,98883.74
2019-05-17T01:48:52.543Z,98887.27
2019-05-17T01:51:26.225Z,98896.11
2019-05-17T01:53:57.429Z,98896.11
2019-05-17T01:56:28.949Z,98913.05
2019-05-17T01:59:00.578Z,98913.05
2019-05-17T02:01:32.126Z,98919.86
2019-05-17T02:04:04.071Z,98923.36
2019-05-17T02:06:36.688Z,98934.41
2019-05-17T02:09:09.070Z,98941.40
2019-05-17T02:11:40.829Z,98941.40
2019-05-17T02:14:12.565Z,98937.87
2019-05-17T02:16:46.769Z,98943.08
2019-05-17T02:19:19.335Z,98943.08
2019-05-17T02:21:50.968Z,98947.98
2019-05-17T02:24:22.962Z,98945.91
2019-05-17T02:26:54.422Z,98945.28
2019-05-17T02:29:27.638Z,98945.28
2019-05-17T02:31:59.215Z,98946.58
2019-05-17T02:34:33.480Z,98947.45
2019-05-17T02:37:03.591Z,98947.45
2019-05-17T02:39:51.938Z,98936.92
2019-05-17T02:42:07.951Z,98928.98
2019-05-17T02:44:39.799Z,98928.98
2019-05-17T02:47:13.333Z,98927.28
2019-05-17T02:49:44.670Z,98923.61
2019-05-17T02:52:16.310Z,98926.97
2019-05-17T02:54:47.792Z,98926.97
2019-05-17T02:57:22.995Z,98929.79
2019-05-17T02:59:53.990Z,98929.79
2019-05-17T03:02:28.012Z,98920.70
2019-05-17T03:04:58.754Z,98920.70
2019-05-17T03:07:32.653Z,98922.44
2019-05-17T03:10:18.303Z,98910.31
2019-05-17T03:12:37.462Z,98909.40
2019-05-17T03:15:12.646Z,98909.40
2019-05-17T03:17:43.852Z,98920.39
2019-05-17T03:20:15.952Z,98925.61
2019-05-17T03:22:47.694Z,98920.88
2019-05-17T03:25:19.542Z,98918.08
2019-05-17T03:27:53.640Z,98924.55
2019-05-17T03:30:26.145Z,98922.70
2019-05-17T03:32:58.266Z,98910.31
2019-05-17T03:35:36.539Z,98922.15
2019-05-17T03:38:04.021Z,98922.15
2019-05-17T03:41:03.483Z,98917.80
2019-05-17T03:43:13.502Z,98913.36
2019-05-17T03:45:43.009Z,98913.36
2019-05-17T03:48:15.274Z,98923.58
2019-05-17T03:50:46.697Z,98918.08
2019-05-17T03:53:18.089Z,98918.08
2019-05-17T03:55:53.738Z,98911.84
2019-05-17T03:58:23.430Z,98920.00
2019-05-17T04:00:55.171Z,98922.34
2019-05-17T04:03:26.578Z,98920.65
2019-05-17T04:05:58.235Z,98924.59
2019-05-17T04:08:29.719Z,98927.55
2019-05-17T04:11:17.596Z,98927.52
2019-05-17T04:13:34.676Z,98930.01
2019-05-17T04:16:09.236Z,98924.16
2019-05-17T04:18:43.730Z,98924.16
2019-05-17T04:21:14.315Z,98928.11
2019-05-17T04:23:46.278Z,98936.44
2019-05-17T04:26:18.370Z,98936.44
2019-05-17T04:28:52.975Z,98931.80
2019-05-17T04:31:23.124Z,98929.94
2019-05-17T04:33:54.800Z,98936.30
2019-05-17T04:36:26.856Z,98929.75
2019-05-17T04:38:58.926Z,98931.16
2019-05-17T04:41:41.420Z,98930.98
2019-05-17T04:44:04.243Z,98930.98
2019-05-17T04:46:35.847Z,98926.35
2019-05-17T04:49:08.917Z,98931.63
2019-05-17T04:51:43.681Z,98928.88
2019-05-17T04:54:14.188Z,98928.02
2019-05-17T04:56:46.218Z,98928.02
2019-05-17T04:59:17.938Z,98917.84
2019-05-17T05:01:49.791Z,98923.53
2019-05-17T05:04:22.622Z,98916.69
2019-05-17T05:06:54.148Z,98917.01
2019-05-17T05:09:26.158Z,98922.28
2019-05-17T05:12:04.819Z,98922.89
2019-05-17T05:14:32.839Z,98914.23
2019-05-17T05:17:04.521Z,98915.51
2019-05-17T05:19:42.133Z,98916.59
2019-05-17T05:22:13.528Z,98911.32
2019-05-17T05:24:49.114Z,98917.02
2019-05-17T05:27:22.282Z,98913.08
2019-05-17T05:29:54.481Z,98913.08
2019-05-17T05:32:26.223Z,98895.22
2019-05-17T05:34:57.757Z,98895.22
2019-05-17T05:37:29.357Z,98894.64
2019-05-17T05:40:02.152Z,98894.64
2019-05-17T05:42:34.386Z,98891.73
2019-05-17T05:45:06.167Z,98895.47
2019-05-17T05:47:38.307Z,98887.16
2019-05-17T05:50:12.510Z,98883.78
2019-05-17T05:52:43.716Z,98881.45
2019-05-17T05:55:15.316Z,98875.98
2019-05-17T05:57:46.596Z,98875.98
2019-05-17T06:00:21.962Z,98874.16
2019-05-17T06:02:52.879Z,98874.16
2019-05-17T06:05:24.781Z,98881.94
2019-05-17T06:07:58.832Z,98871.23
2019-05-17T06:10:32.537Z,98871.23
2019-05-17T06:13:05.231Z,98872.72
2019-05-17T06:15:37.807Z,98864.27
2019-05-17T06:18:11.959Z,98858.21
2019-05-17T06:20:42.667Z,98855.52
2019-05-17T06:23:15.315Z,98844.98
2019-05-17T06:25:48.049Z,98844.34
2019-05-17T06:28:22.317Z,98837.22
2019-05-17T06:30:55.682Z,98833.95
2019-05-17T06:33:31.045Z,98833.95
2019-05-17T06:36:04.022Z,98839.59
2019-05-17T06:38:36.963Z,98845.48
2019-05-17T06:41:09.621Z,98833.11
2019-05-17T06:43:41.759Z,98835.06
2019-05-17T06:46:13.930Z,98835.06
2019-05-17T06:48:46.786Z,98829.59
2019-05-17T06:51:19.184Z,98824.82
2019-05-17T06:53:52.387Z,98812.63
2019-05-17T06:56:24.796Z,98812.63
2019-05-17T06:58:58.298Z,98808.13
2019-05-17T07:01:30.545Z,98812.39
2019-05-17T07:04:04.594Z,98807.67
2019-05-17T07:06:40.269Z,98789.34
2019-05-17T07:09:12.226Z,98789.34
2019-05-17T07:11:44.569Z,98786.12
2019-05-17T07:14:20.028Z,98781.00
2019-05-17T07:16:53.670Z,98774.03
2019-05-17T07:19:26.681Z,98768.45
2019-05-17T07:22:00.938Z,98768.45
2019-05-17T07:24:39.729Z,98758.31
2019-05-17T07:27:13.738Z,98758.31
2019-05-17T07:29:49.753Z,98750.86
2019-05-17T07:32:29.579Z,98755.72
2019-05-17T07:35:04.218Z,98750.66
2019-05-17T07:37:40.023Z,98732.02
2019-05-17T07:40:15.417Z,98732.02
2019-05-17T07:42:50.230Z,98742.39
2019-05-17T07:45:24.780Z,98737.00
2019-05-17T07:48:00.144Z,98731.09
2019-05-17T07:50:34.747Z,98725.96
2019-05-17T07:53:10.355Z,98711.63
2019-05-17T07:55:46.061Z,98709.39
2019-05-17T07:58:21.350Z,98707.58
2019-05-17T08:00:56.557Z,98703.85
2019-05-17T08:03:31.297Z,98702.52
2019-05-17T08:06:05.309Z,98690.75
2019-05-17T08:08:40.968Z,98681.05
2019-05-17T08:11:14.360Z,98681.05
2019-05-17T08:13:47.654Z,98678.84
2019-05-17T08:16:19.704Z,98663.05
2019-05-17T08:18:51.975Z,98657.66
2019-05-17T08:21:24.872Z,98657.66
2019-05-17T08:24:00.107Z,98656.56
2019-05-17T08:26:31.830Z,98655.95
2019-05-17T08:29:03.607Z,98650.38
2019-05-17T08:31:40.193Z,98645.73
2019-05-17T08:34:11.231Z,98635.70
2019-05-17T08:36:42.942Z,98633.42
2019-05-17T08:39:14.600Z,98622.06
2019-05-17T08:41:46.973Z,98621.61
2019-05-17T08:44:19.253Z,98613.00
2019-05-17T08:46:51.466Z,98599.84
2019-05-17T08:49:23.488Z,98599.84
2019-05-17T08:51:55.588Z,98600.22
2019-05-17T08:54:27.539Z,98597.40
2019-05-17T08:57:00.663Z,98591.53
2019-05-17T08:59:32.444Z,98585.94
2019-05-17T09:02:04.623Z,98584.92
2019-05-17T09:04:36.649Z,98571.83
2019-05-17T09:07:09.489Z,98570.60
2019-05-17T09:09:41.286Z,98564.92
2019-05-17T09:12:13.846Z,98549.85
2019-05-17T09:14:45.692Z,98558.95
2019-05-17T09:17:19.366Z,98546.98
2019-05-17T09:19:54.366Z,98545.95
2019-05-17T09:22:25.685Z,98540.21
2019-05-17T09:24:59.595Z,98540.22
2019-05-17T09:27:34.081Z,98533.62
2019-05-17T09:30:10.694Z,98530.39
2019-05-17T09:32:42.580Z,98530.39
2019-05-17T09:35:14.399Z,98523.63
2019-05-17T09:37:46.696Z,98505.35
2019-05-17T09:40:20.055Z,98505.35
2019-05-17T09:42:52.140Z,98506.75
2019-05-17T09:45:24.436Z,98501.17
2019-05-17T09:47:56.832Z,98491.54
2019-05-17T09:50:29.393Z,98482.55
2019-05-17T09:53:01.441Z,98471.78
2019-05-17T09:55:33.458Z,98466.77
2019-05-17T09:58:05.373Z,98458.36
2019-05-17T10:00:37.910Z,98458.36
2019-05-17T10:03:09.959Z,98450.50
2019-05-17T10:05:41.948Z,98448.23
2019-05-17T10:08:14.785Z,98448.23
2019-05-17T10:11:00.949Z,98424.79
2019-05-17T10:13:21.668Z,98424.79
2019-05-17T10:15:54.482Z,98409.42
2019-05-17T10:18:26.256Z,98409.42
2019-05-17T10:20:59.851Z,98400.22
2019-05-17T10:23:32.015Z,98400.22
2019-05-17T10:26:04.222Z,98398.59
2019-05-17T10:28:36.341Z,98396.52
2019-05-17T10:31:11.678Z,98389.16
2019-05-17T10:33:42.661Z,98389.16
2019-05-17T10:36:20.037Z,98378.20
2019-05-17T10:38:53.307Z,98383.14
2019-05-17T10:41:25.275Z,98383.14
2019-05-17T10:43:57.503Z,98383.67
2019-05-17T10:46:30.079Z,98381.36
2019-05-17T10:49:02.293Z,98376.59
2019-05-17T10:51:34.419Z,98375.63
2019-05-17T10:54:06.500Z,98371.28
2019-05-17T10:56:38.894Z,98358.96
2019-05-17T10:59:10.811Z,98352.89
2019-05-17T11:01:42.356Z,98350.76
2019-05-17T11:04:14.279Z,98344.50
2019-05-17T11:06:46.102Z,98346.12
2019-05-17T11:09:20.525Z,98346.12
2019-05-17T11:11:51.959Z,98349.43
2019-05-17T11:14:23.619Z,98344.78
2019-05-17T11:16:55.030Z,98344.78
2019-05-17T11:19:26.792Z,98340.33
2019-05-17T11:21:58.396Z,98343.00
2019-05-17T11:24:29.893Z,98341.69
2019-05-17T11:27:01.835Z,98344.36
2019-05-17T11:29:33.768Z,98343.72
2019-05-17T11:32:05.443Z,98336.89
2019-05-17T11:34:37.200Z,98328.36
2019-05-17T11:37:09.651Z,98328.36
2019-05-17T11:39:42.408Z,98327.55
2019-05-17T11:42:14.410Z,98329.94
2019-05-17T11:44:46.120Z,98329.94
2019-05-17T11:47:18.213Z,98324.02
2019-05-17T11:49:51.928Z,98317.21
2019-05-17T11:52:24.253Z,98322.78
2019-05-17T11:54:56.015Z,98331.16
2019-05-17T11:57:28.824Z,98331.16
2019-05-17T12:00:01.237Z,98331.73
2019-05-17T12:02:35.359Z,98333.69
2019-05-17T12:05:09.407Z,98342.15
2019-05-17T12:07:41.022Z,98341.02
2019-05-17T12:10:13.866Z,98338.98
2019-05-17T12:12:45.508Z,98338.65
2019-05-17T12:15:18.806Z,98336.12
2019-05-17T12:17:50.656Z,98338.03
2019-05-17T12:20:23.042Z,98332.13
2019-05-17T12:22:55.871Z,98336.77
2019-05-17T12:25:27.671Z,98336.84
2019-05-17T12:27:59.973Z,98328.91
2019-05-17T12:30:32.040Z,98332.95
2019-05-17T12:33:03.878Z,98338.43
2019-05-17T12:35:35.687Z,98338.15
2019-05-17T12:38:07.494Z,98334.53
2019-05-17T12:40:39.297Z,98333.33
2019-05-17T12:43:11.040Z,98337.55
2019-05-17T12:45:42.741Z,98336.98
2019-05-17T12:48:14.281Z,98330.48
2019-05-17T12:50:46.397Z,98335.05
2019-05-17T12:53:18.165Z,98332.22
2019-05-17T12:55:49.793Z,98332.22
2019-05-17T12:58:21.738Z,98335.86
2019-05-17T13:00:53.890Z,98347.37
2019-05-17T13:03:25.500Z,98350.03
2019-05-17T13:05:57.130Z,98348.54
2019-05-17T13:08:28.653Z,98355.28
2019-05-17T13:11:00.101Z,98355.59
2019-05-17T13:13:32.706Z,98368.15
2019-05-17T13:16:17.612Z,98380.58
2019-05-17T13:18:37.802Z,98378.19
2019-05-17T13:21:09.423Z,98394.42
2019-05-17T13:23:41.381Z,98395.89
2019-05-17T13:26:12.802Z,98394.27
2019-05-17T13:28:44.615Z,98394.27
2019-05-17T13:31:16.098Z,98375.66
2019-05-17T13:33:47.435Z,98375.66
2019-05-17T13:36:19.573Z,98388.98
2019-05-17T13:38:50.992Z,98388.98
2019-05-17T13:41:22.900Z,98384.42
2019-05-17T13:43:54.704Z,98394.55
2019-05-17T13:46:33.081Z,98394.55
2019-05-17T13:48:59.458Z,98402.05
2019-05-17T13:51:31.056Z,98410.80
2019-05-17T13:54:02.738Z,98414.50
2019-05-17T13:56:34.300Z,98414.50
2019-05-17T13:59:06.030Z,98414.14
2019-05-17T14:01:37.685Z,98420.95
2019-05-17T14:04:09.241Z,98425.70
2019-05-17T14:06:40.994Z,98429.36
2019-05-17T14:09:12.389Z,98430.21
2019-05-17T14:11:44.028Z,98434.98
2019-05-17T14:14:15.888Z,98444.89
2019-05-17T14:16:48.125Z,98445.09
2019-05-17T14:19:19.985Z,98459.14
2019-05-17T14:21:51.902Z,98465.16
2019-05-17T14:24:23.459Z,98468.24
2019-05-17T14:27:01.501Z,98484.48
2019-05-17T14:29:33.418Z,98487.05
2019-05-17T14:32:05.568Z,98492.41
2019-05-17T14:34:37.008Z,98492.41
2019-05-17T14:37:08.837Z,98508.89
2019-05-17T14:39:40.413Z,98515.20
2019-05-17T14:42:12.689Z,98515.20
2019-05-17T14:44:44.153Z,98535.55
2019-05-17T14:47:16.140Z,98548.27
2019-05-17T14:49:47.747Z,98559.90
2019-05-17T14:52:19.573Z,98589.23
2019-05-17T14:54:51.237Z,98589.23
2019-05-17T14:57:23.079Z,98627.91
2019-05-17T14:59:54.814Z,98750.27
2019-05-17T15:02:26.895Z,98806.08
2019-05-17T15:04:58.275Z,98875.45
2019-05-17T15:07:29.959Z,98875.45
2019-05-17T15:10:02.395Z,98873.02
2019-05-17T15:12:34.261Z,98873.02
2019-05-17T15:15:05.955Z,98850.31
2019-05-17T15:17:37.684Z,98852.00
2019-05-17T15:20:09.582Z,98812.98
2019-05-17T15:22:41.288Z,98793.03
2019-05-17T15:25:12.957Z,98793.03
2019-05-17T15:27:44.510Z,98786.41
2019-05-17T15:30:16.803Z,98804.20
2019-05-17T15:32:48.291Z,98794.66
2019-05-17T15:35:19.807Z,98790.61
2019-05-17T15:37:51.347Z,98787.66
2019-05-17T15:40:23.176Z,98787.66
2019-05-17T15:42:55.108Z,98785.59
2019-05-17T15:45:26.984Z,98784.38
2019-05-17T15:47:58.628Z,98782.13
2019-05-17T15:50:30.723Z,98782.13
2019-05-17T15:53:02.292Z,98771.67
2019-05-17T15:55:33.986Z,98765.62
2019-05-17T15:58:05.532Z,98759.52
2019-05-17T16:00:37.411Z,98759.52
2019-05-17T16:03:08.754Z,98749.56
2019-05-17T16:05:40.413Z,98742.31
2019-05-17T16:08:12.479Z,98740.60
2019-05-17T16:10:44.412Z,98718.61
2019-05-17T16:13:15.906Z,98705.53
2019-05-17T16:15:47.711Z,98705.53
2019-05-17T16:18:19.168Z,98697.58
2019-05-17T16:20:50.941Z,98692.19
2019-05-17T16:23:22.313Z,98683.32
2019-05-17T16:25:54.152Z,98686.89
2019-05-17T16:28:25.610Z,98686.89
2019-05-17T16:30:57.434Z,98692.65
2019-05-17T16:33:28.817Z,98692.65
2019-05-17T16:36:00.252Z,98684.11
2019-05-17T16:38:31.840Z,98701.09
2019-05-17T16:41:06.563Z,98710.73
2019-05-17T16:43:38.366Z,98710.73
2019-05-17T16:46:10.354Z,98701.43
2019-05-17T16:48:42.535Z,98701.43
2019-05-17T16:51:14.429Z,98694.28
2019-05-17T16:53:46.342Z,98679.42
2019-05-17T16:56:17.852Z,98679.42
2019-05-17T16:58:49.617Z,98668.66
2019-05-17T17:01:21.540Z,98668.66
2019-05-17T17:03:53.450Z,98671.12
2019-05-17T17:06:25.198Z,98670.03
2019-05-17T17:08:56.969Z,98669.13
2019-05-17T17:11:28.992Z,98675.84
2019-05-17T17:14:00.486Z,98674.67
2019-05-17T17:16:32.207Z,98664.59
2019-05-17T17:19:04.035Z,98673.14
2019-05-17T17:21:35.620Z,98670.83
2019-05-17T17:24:07.666Z,98675.65
2019-05-17T17:26:39.649Z,98667.37
2019-05-17T17:29:11.638Z,98667.37
2019-05-17T17:31:43.446Z,98687.28
2019-05-17T17:34:14.815Z,98690.18
2019-05-17T17:36:46.581Z,98690.18
2019-05-17T17:39:18.108Z,98722.33
2019-05-17T17:41:50.448Z,98722.33
2019-05-17T17:44:22.584Z,98733.54
2019-05-17T17:46:54.652Z,98733.54
2019-05-17T17:49:25.986Z,98736.08
2019-05-17T17:51:58.791Z,98751.06
2019-05-17T17:54:30.219Z,98751.06
2019-05-17T17:57:01.809Z,98761.16
2019-05-17T17:59:33.632Z,98769.54
2019-05-17T18:02:05.264Z,98766.27
2019-05-17T18:04:37.109Z,98772.88
2019-05-17T18:07:08.670Z,98772.88
2019-05-17T18:09:40.178Z,98775.20
2019-05-17T18:12:12.377Z,98774.54
2019-05-17T18:14:43.882Z,98774.54
2019-05-17T18:17:15.869Z,98772.78
2019-05-17T18:19:47.295Z,98782.83
2019-05-17T18:22:19.296Z,98782.83
2019-05-17T18:24:51.034Z,98777.59
2019-05-17T18:27:22.611Z,98774.35
2019-05-17T18:29:54.302Z,98774.66
2019-05-17T18:32:26.034Z,98774.62
2019-05-17T18:34:57.652Z,98775.14
2019-05-17T18:37:29.525Z,98783.48
2019-05-17T18:40:01.251Z,98766.52
2019-05-17T18:42:33.513Z,98766.52
2019-05-17T18:45:05.247Z,98777.67
2019-05-17T18:47:37.183Z,98770.72
2019-05-17T18:50:09.794Z,98770.72
2019-05-17T18:52:41.384Z,98774.68
2019-05-17T18:55:13.912Z,98777.53
2019-05-17T18:57:45.667Z,98779.70
2019-05-17T19:00:19.478Z,98780.01
2019-05-17T19:02:51.210Z,98774.70
2019-05-17T19:05:22.749Z,98750.11
2019-05-17T19:07:54.474Z,98750.11
2019-05-17T19:10:26.177Z,98746.58
2019-05-17T19:12:57.859Z,98742.78
2019-05-17T19:15:29.443Z,98745.77
2019-05-17T19:18:01.144Z,98733.81
2019-05-17T19:20:32.682Z,98731.44
2019-05-17T19:23:06.210Z,98721.96
2019-05-17T19:25:38.303Z,98728.47
2019-05-17T19:28:10.354Z,98704.20
2019-05-17T19:30:41.658Z,98704.20
2019-05-17T19:33:13.505Z,98704.53
2019-05-17T19:35:45.159Z,98700.20
2019-05-17T19:38:17.227Z,98699.20
2019-05-17T19:40:48.668Z,98699.20
2019-05-17T19:43:20.813Z,98686.09
2019-05-17T19:45:52.533Z,98683.89
2019-05-17T19:48:24.224Z,98673.91
2019-05-17T19:50:55.891Z,98671.25
2019-05-17T19:53:27.543Z,98671.25
2019-05-17T19:55:59.353Z,98672.88
2019-05-17T19:58:30.810Z,98672.88
2019-05-17T20:01:02.462Z,98669.55
2019-05-17T20:03:34.001Z,98675.94
2019-05-17T20:06:05.604Z,98668.89
2019-05-17T20:08:37.248Z,98657.61
2019-05-17T20:11:08.771Z,98657.61
2019-05-17T20:13:40.749Z,98648.50
2019-05-17T20:16:12.341Z,98648.94
2019-05-17T20:18:44.004Z,98652.89
2019-05-17T20:21:16.053Z,98640.48
2019-05-17T20:23:47.776Z,98635.71
2019-05-17T20:26:19.599Z,98635.71
2019-05-17T20:28:51.231Z,98633.20
2019-05-17T20:31:23.108Z,98635.97
2019-05-17T20:33:55.763Z,98635.65
2019-05-17T20:36:27.433Z,98637.94
2019-05-17T20:38:58.980Z,98638.27
2019-05-17T20:41:30.672Z,98638.92
2019-05-17T20:44:02.621Z,98639.89
2019-05-17T20:46:34.167Z,98644.62
2019-05-17T20:49:05.908Z,98649.58
2019-05-17T20:51:40.214Z,98652.28
2019-05-17T20:54:11.760Z,98652.28
2019-05-17T20:56:43.476Z,98657.91
2019-05-17T20:59:15.193Z,98657.91
2019-05-17T21:01:46.657Z,98657.77
2019-05-17T21:04:18.521Z,98659.71
2019-05-17T21:06:50.229Z,98662.89
2019-05-17T21:09:21.840Z,98654.91
2019-05-17T21:11:53.367Z,98662.70
2019-05-17T21:14:25.510Z,98663.92
2019-05-17T21:16:57.615Z,98654.80
2019-05-17T21:19:29.226Z,98654.80
2019-05-17T21:22:00.928Z,98667.78
2019-05-17T21:24:32.512Z,98663.77
2019-05-17T21:27:04.232Z,98665.63
2019-05-17T21:29:35.905Z,98661.63
2019-05-17T21:32:09.546Z,98672.27
2019-05-17T21:34:40.980Z,98672.27
2019-05-17T21:37:12.856Z,98665.79
2019-05-17T21:39:45.387Z,98665.94
2019-05-17T21:42:17.131Z,98663.97
2019-05-17T21:44:49.747Z,98662.30
2019-05-17T21:47:21.358Z,98661.45
2019-05-17T21:49:53.289Z,98659.97
2019-05-17T21:52:24.785Z,98655.83
2019-05-17T21:54:56.407Z,98649.14
2019-05-17T21:57:27.851Z,98645.50
2019-05-17T21:59:59.605Z,98649.98
2019-05-17T22:02:31.426Z,98650.97
2019-05-17T22:05:03.442Z,98648.98
2019-05-17T22:07:36.015Z,98643.52
2019-05-17T22:10:08.316Z,98639.66
2019-05-17T22:12:40.080Z,98639.34
2019-05-17T22:15:13.371Z,98638.68
2019-05-17T22:17:44.969Z,98638.68
2019-05-17T22:20:17.035Z,98643.34
2019-05-17T22:22:48.789Z,98649.98
2019-05-17T22:25:20.553Z,98652.33
2019-05-17T22:27:52.359Z,98648.31
2019-05-17T22:30:24.074Z,98649.66
2019-05-17T22:32:55.901Z,98650.96
2019-05-17T22:35:27.651Z,98649.81
2019-05-17T22:37:59.363Z,98654.32
2019-05-17T22:40:30.923Z,98657.95
2019-05-17T22:43:02.898Z,98657.95
2019-05-17T22:45:36.355Z,98659.64
2019-05-17T22:48:08.311Z,98655.32
2019-05-17T22:50:40.234Z,98660.31
2019-05-17T22:53:12.103Z,98665.28
2019-05-17T22:55:43.895Z,98668.77
2019-05-17T22:58:15.620Z,98669.44
2019-05-17T23:00:47.519Z,98677.59
2019-05-17T23:03:19.953Z,98677.59
2019-05-17T23:05:52.657Z,98672.92
2019-05-17T23:08:24.600Z,98677.41
2019-05-17T23:10:56.494Z,98681.23
2019-05-17T23:13:28.209Z,98681.22
2019-05-17T23:16:05.314Z,98691.22
2019-05-17T23:18:37.101Z,98690.05
2019-05-17T23:21:08.853Z,98692.55
2019-05-17T23:23:40.522Z,98695.48
2019-05-17T23:26:12.476Z,98692.52
2019-05-17T23:28:44.218Z,98698.37
2019-05-17T23:31:15.913Z,98694.80
2019-05-17T23:33:47.462Z,98695.89
2019-05-17T23:36:19.318Z,98700.13
2019-05-17T23:38:50.834Z,98694.90
2019-05-17T23:41:22.643Z,98691.45
2019-05-17T23:43:54.276Z,98691.50
2019-05-17T23:46:26.253Z,98688.88
2019-05-17T23:48:57.817Z,98695.53
2019-05-17T23:51:29.524Z,98696.52
2019-05-17T23:54:01.123Z,98701.19
2019-05-17T23:56:32.850Z,98703.73
2019-05-17T23:59:07.234Z,98703.73
